Quick Links (Output Below):   Max & Min Temps   /   Climate Reports   /   Zone Forecasts
River Forecasts   /   Forestry Forecasts   /   Aviation Forecasts   /   Radars   /   Features

Terminal Aerodrome Forecast (Little Rock)

Pick a Site:
Arkadelphia | El Dorado | Fayetteville | Fort Smith | Harrison | Highfill | Hot Springs | Jonesboro
Little Rock | Monticello | Mountain Home | Pine Bluff | Texarkana
 Forecast 

KLIT 242336Z 2500/2524 18003KT P6SM SKC
     FM251400 22005KT P6SM BKN250
     FM251800 19007KT P6SM VCSH BKN040=


 Latest METARs (Observations) 
How to Decode METARs
04Z KLIT 250353Z 17004KT 10SM FEW250 28/24 A3008 RMK AO2 SLP185
         T02780239
         
03Z KLIT 250253Z 18007KT 10SM CLR 28/24 A3009 RMK AO2 SLP188 T02830244
         51010
         
02Z KLIT 250153Z 16005KT 10SM CLR 29/24 A3008 RMK AO2 SLP186
         T02890244
         
01Z KLIT 250053Z COR 18006KT 10SM FEW250 31/24 A3008 RMK AO2 SLP183
         T03060239
         
00Z KLIT 242353Z 18006KT 10SM FEW045 33/24 A3006 RMK AO2 SLP178
         T03280239 10356 20328 55006
         
***** Today's Observations (Above) *****


23Z KLIT 242253Z 17007KT 10SM FEW045 34/24 A3005 RMK AO2 SLP176
         T03390239
         
22Z KLIT 242153Z 18009KT 10SM SCT045 34/23 A3006 RMK AO2 SLP180
         T03440233
         
21Z KLIT 242053Z 19008KT 10SM SCT045 35/24 A3008 RMK AO2 SLP184
         T03500239 58020
         
20Z KLIT 241953Z 17011KT 10SM SCT040 35/24 A3010 RMK AO2 SLP193
         T03500239
         
19Z KLIT 241853Z 22009G15KT 10SM SCT037 34/24 A3012 RMK AO2 SLP199
         T03440239
         
***** Yesterday's Observations (Above) *****


Back to Main Page
http://www.srh.noaa.gov/lzk/qfcst.php

USA.gov is the U.S. government's official web portal to all federal, state and local government web resources and services.